BEL9BP EDDM-EBBR
Flight info
| Callsign | BEL9BP |
|---|---|
| Flight time | 1h 4m |
| Altitude | 34000 |
| Route | GIVMI1N/26R GIVMI Y101 INBED DCT REKDI DCT LOHRE DCT BATTY |
| Aircraft | A320/M-DE3FGHIJ1LORVWY/H |
Departure
| Time | 2026-05-05 18:32 |
|---|---|
| Airport | Munich Airport (EDDM) |
Arrival
| Time | 2026-05-05 19:36 |
|---|---|
| Airport | Brussels Airport (EBBR) |
| Time | Latitude | Longitude | Altitude | Speed | Heading |
|---|---|---|---|---|---|
| 2026-05-05 17:49 | 48.35099 | 11.79368 | 1486 ft | 0 kts | 263° |
| 2026-05-05 18:16 | 48.35101 | 11.79396 | 1482 ft | 4 kts | 263° |
| 2026-05-05 18:16 | 48.35104 | 11.79436 | 1483 ft | 4 kts | 263° |
| 2026-05-05 18:17 | 48.35106 | 11.79468 | 1485 ft | 4 kts | 271° |
| 2026-05-05 18:17 | 48.35101 | 11.79504 | 1482 ft | 4 kts | 313° |
| 2026-05-05 18:17 | 48.35081 | 11.79519 | 1471 ft | 4 kts | 353° |
| 2026-05-05 18:17 | 48.35069 | 11.79521 | 1471 ft | 0 kts | 353° |
| 2026-05-05 18:19 | 48.35085 | 11.79522 | 1471 ft | 6 kts | 9° |
| 2026-05-05 18:20 | 48.35143 | 11.79574 | 1478 ft | 13 kts | 8° |
| 2026-05-05 18:20 | 48.35248 | 11.79560 | 1485 ft | 16 kts | 353° |
| 2026-05-05 18:20 | 48.35364 | 11.79539 | 1478 ft | 18 kts | 354° |
| 2026-05-05 18:20 | 48.35496 | 11.79515 | 1483 ft | 21 kts | 353° |
| 2026-05-05 18:21 | 48.35657 | 11.79487 | 1485 ft | 24 kts | 352° |
| 2026-05-05 18:21 | 48.35826 | 11.79459 | 1485 ft | 24 kts | 354° |
| 2026-05-05 18:21 | 48.35949 | 11.79500 | 1485 ft | 14 kts | 8° |
| 2026-05-05 18:21 | 48.36006 | 11.79494 | 1475 ft | 8 kts | 353° |
| 2026-05-05 18:22 | 48.36030 | 11.79490 | 1479 ft | 0 kts | 353° |
| 2026-05-05 18:23 | 48.36047 | 11.79487 | 1485 ft | 7 kts | 353° |
| 2026-05-05 18:24 | 48.36125 | 11.79474 | 1476 ft | 15 kts | 354° |
| 2026-05-05 18:24 | 48.36202 | 11.79524 | 1480 ft | 13 kts | 57° |
| 2026-05-05 18:24 | 48.36233 | 11.79715 | 1479 ft | 23 kts | 83° |
| 2026-05-05 18:24 | 48.36252 | 11.79957 | 1482 ft | 24 kts | 83° |
| 2026-05-05 18:25 | 48.36271 | 11.80216 | 1485 ft | 26 kts | 83° |
| 2026-05-05 18:25 | 48.36286 | 11.80398 | 1483 ft | 26 kts | 83° |
| 2026-05-05 18:25 | 48.36315 | 11.80772 | 1481 ft | 28 kts | 83° |
| 2026-05-05 18:25 | 48.36337 | 11.81069 | 1472 ft | 29 kts | 83° |
| 2026-05-05 18:26 | 48.36360 | 11.81372 | 1485 ft | 28 kts | 83° |
| 2026-05-05 18:26 | 48.36381 | 11.81632 | 1473 ft | 23 kts | 82° |
| 2026-05-05 18:26 | 48.36398 | 11.81853 | 1485 ft | 16 kts | 86° |
| 2026-05-05 18:26 | 48.36432 | 11.81994 | 1489 ft | 15 kts | 20° |
| 2026-05-05 18:27 | 48.36487 | 11.81995 | 1482 ft | 3 kts | 354° |
| 2026-05-05 18:27 | 48.36494 | 11.81994 | 1484 ft | 0 kts | 354° |
| 2026-05-05 18:27 | 48.36506 | 11.81992 | 1485 ft | 7 kts | 354° |
| 2026-05-05 18:27 | 48.36559 | 11.81983 | 1480 ft | 2 kts | 353° |
| 2026-05-05 18:28 | 48.36567 | 11.81982 | 1475 ft | 0 kts | 353° |
| 2026-05-05 18:30 | 48.36574 | 11.81980 | 1480 ft | 3 kts | 353° |
| 2026-05-05 18:30 | 48.36610 | 11.81974 | 1485 ft | 7 kts | 354° |
| 2026-05-05 18:30 | 48.36665 | 11.81957 | 1476 ft | 8 kts | 324° |
| 2026-05-05 18:31 | 48.36673 | 11.81916 | 1476 ft | 0 kts | 264° |
| 2026-05-05 18:31 | 48.36660 | 11.81743 | 1485 ft | 51 kts | 263° |
| 2026-05-05 18:31 | 48.36593 | 11.80875 | 1481 ft | 114 kts | 263° |
| 2026-05-05 18:31 | 48.36487 | 11.79434 | 1566 ft | 152 kts | 265° |
| 2026-05-05 18:32 | 48.36389 | 11.77921 | 2240 ft | 144 kts | 265° |
| 2026-05-05 18:32 | 48.36282 | 11.76418 | 2789 ft | 145 kts | 267° |
| 2026-05-05 18:32 | 48.36167 | 11.74854 | 3158 ft | 160 kts | 266° |
| 2026-05-05 18:32 | 48.36031 | 11.73039 | 3334 ft | 189 kts | 266° |
| 2026-05-05 18:33 | 48.35872 | 11.70951 | 3634 ft | 213 kts | 265° |
| 2026-05-05 18:33 | 48.35762 | 11.68688 | 4293 ft | 220 kts | 277° |
| 2026-05-05 18:33 | 48.36272 | 11.66476 | 4873 ft | 237 kts | 298° |
| 2026-05-05 18:33 | 48.37155 | 11.64267 | 5376 ft | 256 kts | 300° |
| 2026-05-05 18:34 | 48.38117 | 11.61939 | 6182 ft | 263 kts | 300° |
| 2026-05-05 18:34 | 48.39096 | 11.59586 | 7007 ft | 268 kts | 300° |
| 2026-05-05 18:34 | 48.40089 | 11.57187 | 7838 ft | 272 kts | 299° |
| 2026-05-05 18:34 | 48.41089 | 11.54743 | 8687 ft | 276 kts | 298° |
| 2026-05-05 18:35 | 48.42103 | 11.52256 | 9542 ft | 281 kts | 299° |
| 2026-05-05 18:35 | 48.43406 | 11.50010 | 10209 ft | 296 kts | 319° |
| 2026-05-05 18:35 | 48.45358 | 11.48664 | 10460 ft | 328 kts | 347° |
| 2026-05-05 18:35 | 48.47703 | 11.48316 | 10865 ft | 345 kts | 350° |
| 2026-05-05 18:36 | 48.50058 | 11.47569 | 11533 ft | 348 kts | 341° |
| 2026-05-05 18:36 | 48.52363 | 11.46403 | 12255 ft | 351 kts | 336° |
| 2026-05-05 18:36 | 48.54652 | 11.45037 | 12998 ft | 355 kts | 334° |
| 2026-05-05 18:36 | 48.56956 | 11.43622 | 13721 ft | 360 kts | 335° |
| 2026-05-05 18:37 | 48.59296 | 11.42229 | 14354 ft | 364 kts | 336° |
| 2026-05-05 18:37 | 48.61682 | 11.40876 | 14989 ft | 368 kts | 337° |
| 2026-05-05 18:37 | 48.64108 | 11.39561 | 15620 ft | 372 kts | 338° |
| 2026-05-05 18:37 | 48.66570 | 11.38267 | 16240 ft | 376 kts | 338° |
| 2026-05-05 18:38 | 48.69054 | 11.36949 | 16869 ft | 379 kts | 335° |
| 2026-05-05 18:38 | 48.71413 | 11.35161 | 17503 ft | 379 kts | 325° |
| 2026-05-05 18:38 | 48.73622 | 11.32960 | 18117 ft | 382 kts | 323° |
| 2026-05-05 18:38 | 48.75848 | 11.30706 | 18649 ft | 386 kts | 323° |
| 2026-05-05 18:39 | 48.78089 | 11.28424 | 19151 ft | 391 kts | 323° |
| 2026-05-05 18:39 | 48.80356 | 11.26111 | 19682 ft | 394 kts | 323° |
| 2026-05-05 18:39 | 48.82644 | 11.23779 | 20250 ft | 398 kts | 324° |
| 2026-05-05 18:39 | 48.85082 | 11.21728 | 20780 ft | 404 kts | 334° |
| 2026-05-05 18:40 | 48.87743 | 11.20264 | 21316 ft | 409 kts | 340° |
| 2026-05-05 18:40 | 48.90458 | 11.18900 | 21848 ft | 413 kts | 339° |
| 2026-05-05 18:40 | 48.93174 | 11.17524 | 22378 ft | 416 kts | 339° |
| 2026-05-05 18:40 | 48.95951 | 11.16112 | 22888 ft | 420 kts | 339° |
| 2026-05-05 18:41 | 48.98718 | 11.14700 | 23386 ft | 423 kts | 339° |
| 2026-05-05 18:41 | 49.01534 | 11.13262 | 23782 ft | 427 kts | 340° |
| 2026-05-05 18:41 | 49.04376 | 11.11812 | 24176 ft | 430 kts | 340° |
| 2026-05-05 18:41 | 49.07212 | 11.10366 | 24568 ft | 433 kts | 340° |
| 2026-05-05 18:42 | 49.10078 | 11.08902 | 24958 ft | 436 kts | 340° |
| 2026-05-05 18:42 | 49.12968 | 11.07428 | 25359 ft | 439 kts | 340° |
| 2026-05-05 18:42 | 49.15870 | 11.05951 | 25727 ft | 441 kts | 340° |
| 2026-05-05 18:42 | 49.18752 | 11.04483 | 26084 ft | 444 kts | 340° |
| 2026-05-05 18:43 | 49.21731 | 11.02960 | 26469 ft | 447 kts | 340° |
| 2026-05-05 18:43 | 49.24649 | 11.01460 | 26806 ft | 450 kts | 340° |
| 2026-05-05 18:43 | 49.27621 | 10.99928 | 27154 ft | 452 kts | 340° |
| 2026-05-05 18:43 | 49.30612 | 10.98382 | 27500 ft | 455 kts | 340° |
| 2026-05-05 18:44 | 49.33616 | 10.96816 | 27836 ft | 457 kts | 339° |
| 2026-05-05 18:44 | 49.36511 | 10.94790 | 28159 ft | 459 kts | 329° |
| 2026-05-05 18:44 | 49.39173 | 10.92086 | 28480 ft | 459 kts | 320° |
| 2026-05-05 18:44 | 49.41527 | 10.88782 | 28787 ft | 459 kts | 310° |
| 2026-05-05 18:45 | 49.43579 | 10.85033 | 29096 ft | 460 kts | 306° |
| 2026-05-05 18:45 | 49.45602 | 10.81205 | 29401 ft | 463 kts | 307° |
| 2026-05-05 18:45 | 49.47639 | 10.77350 | 29694 ft | 465 kts | 307° |
| 2026-05-05 18:45 | 49.49682 | 10.73471 | 29946 ft | 468 kts | 307° |
| 2026-05-05 18:46 | 49.51731 | 10.69569 | 30179 ft | 470 kts | 307° |
| 2026-05-05 18:46 | 49.53789 | 10.65653 | 30416 ft | 472 kts | 307° |
| 2026-05-05 18:46 | 49.55855 | 10.61717 | 30651 ft | 473 kts | 307° |
| 2026-05-05 18:46 | 49.57923 | 10.57772 | 30873 ft | 475 kts | 307° |
| 2026-05-05 18:47 | 49.59996 | 10.53805 | 31116 ft | 476 kts | 307° |
| 2026-05-05 18:47 | 49.62069 | 10.49830 | 31419 ft | 475 kts | 307° |
| 2026-05-05 18:47 | 49.64133 | 10.45865 | 31732 ft | 474 kts | 307° |
| 2026-05-05 18:47 | 49.66174 | 10.41873 | 32044 ft | 473 kts | 305° |
| 2026-05-05 18:48 | 49.68115 | 10.37783 | 32362 ft | 472 kts | 303° |
| 2026-05-05 18:48 | 49.69969 | 10.33607 | 32630 ft | 472 kts | 301° |
| 2026-05-05 18:48 | 49.71775 | 10.29370 | 32915 ft | 472 kts | 301° |
| 2026-05-05 18:48 | 49.73566 | 10.25118 | 33213 ft | 471 kts | 301° |
| 2026-05-05 18:49 | 49.75363 | 10.20885 | 33483 ft | 471 kts | 301° |
| 2026-05-05 18:49 | 49.77181 | 10.16662 | 33748 ft | 472 kts | 301° |
| 2026-05-05 18:49 | 49.80848 | 10.08318 | 33830 ft | 465 kts | 302° |
| 2026-05-05 18:50 | 49.84487 | 10.00076 | 33860 ft | 463 kts | 302° |
| 2026-05-05 18:50 | 49.88106 | 9.91780 | 33829 ft | 466 kts | 302° |
| 2026-05-05 18:51 | 49.91723 | 9.83436 | 33832 ft | 466 kts | 302° |
| 2026-05-05 18:51 | 49.95335 | 9.75087 | 33828 ft | 466 kts | 302° |
| 2026-05-05 18:52 | 49.98948 | 9.66717 | 33824 ft | 466 kts | 301° |
| 2026-05-05 18:52 | 50.02544 | 9.58341 | 33830 ft | 466 kts | 301° |
| 2026-05-05 18:53 | 50.06103 | 9.49908 | 33824 ft | 465 kts | 297° |
| 2026-05-05 18:53 | 50.08684 | 9.40748 | 33821 ft | 462 kts | 288° |
| 2026-05-05 18:54 | 50.11000 | 9.31419 | 33819 ft | 462 kts | 288° |
| 2026-05-05 18:54 | 50.12929 | 9.23651 | 33820 ft | 462 kts | 288° |
| 2026-05-05 18:55 | 50.15622 | 9.12776 | 33831 ft | 463 kts | 288° |
| 2026-05-05 18:55 | 50.17926 | 9.03404 | 33822 ft | 463 kts | 288° |
| 2026-05-05 18:56 | 50.20219 | 8.94033 | 33820 ft | 463 kts | 288° |
| 2026-05-05 18:56 | 50.22142 | 8.86159 | 33817 ft | 463 kts | 288° |
| 2026-05-05 18:57 | 50.24423 | 8.76767 | 33816 ft | 463 kts | 288° |
| 2026-05-05 18:57 | 50.26699 | 8.67361 | 33815 ft | 463 kts | 288° |
| 2026-05-05 18:58 | 50.28967 | 8.57961 | 33814 ft | 463 kts | 288° |
| 2026-05-05 18:58 | 50.31231 | 8.48542 | 33818 ft | 463 kts | 288° |
| 2026-05-05 18:59 | 50.33488 | 8.39109 | 33829 ft | 463 kts | 287° |
| 2026-05-05 18:59 | 50.35730 | 8.29672 | 33840 ft | 463 kts | 287° |
| 2026-05-05 19:00 | 50.36849 | 8.24951 | 33730 ft | 461 kts | 287° |
| 2026-05-05 19:00 | 50.37963 | 8.20245 | 32956 ft | 461 kts | 287° |
| 2026-05-05 19:00 | 50.39078 | 8.15525 | 32238 ft | 460 kts | 288° |
| 2026-05-05 19:00 | 50.40179 | 8.10841 | 31659 ft | 456 kts | 288° |
| 2026-05-05 19:01 | 50.41269 | 8.06195 | 31116 ft | 452 kts | 288° |
| 2026-05-05 19:01 | 50.42349 | 8.01599 | 30589 ft | 448 kts | 288° |
| 2026-05-05 19:01 | 50.43421 | 7.97031 | 30073 ft | 444 kts | 288° |
| 2026-05-05 19:01 | 50.44482 | 7.92497 | 29503 ft | 441 kts | 288° |
| 2026-05-05 19:02 | 50.45531 | 7.88000 | 28963 ft | 437 kts | 288° |
| 2026-05-05 19:02 | 50.46568 | 7.83554 | 28450 ft | 432 kts | 288° |
| 2026-05-05 19:02 | 50.47590 | 7.79153 | 27926 ft | 427 kts | 288° |
| 2026-05-05 19:02 | 50.48584 | 7.74858 | 27411 ft | 423 kts | 288° |
| 2026-05-05 19:03 | 50.49582 | 7.70524 | 26900 ft | 419 kts | 288° |
| 2026-05-05 19:03 | 50.50566 | 7.66234 | 26404 ft | 416 kts | 288° |
| 2026-05-05 19:03 | 50.51543 | 7.61983 | 25914 ft | 412 kts | 288° |
| 2026-05-05 19:03 | 50.52517 | 7.57764 | 25436 ft | 409 kts | 288° |
| 2026-05-05 19:04 | 50.53477 | 7.53587 | 24979 ft | 405 kts | 288° |
| 2026-05-05 19:04 | 50.54440 | 7.49381 | 24521 ft | 402 kts | 288° |
| 2026-05-05 19:04 | 50.55348 | 7.45305 | 24083 ft | 398 kts | 284° |
| 2026-05-05 19:04 | 50.55968 | 7.41099 | 23666 ft | 393 kts | 277° |
| 2026-05-05 19:05 | 50.56270 | 7.36798 | 23182 ft | 389 kts | 274° |
| 2026-05-05 19:05 | 50.56531 | 7.32580 | 22682 ft | 386 kts | 274° |
| 2026-05-05 19:05 | 50.56793 | 7.28395 | 22201 ft | 383 kts | 274° |
| 2026-05-05 19:05 | 50.57052 | 7.24300 | 21739 ft | 379 kts | 274° |
| 2026-05-05 19:06 | 50.57314 | 7.20135 | 21271 ft | 376 kts | 274° |
| 2026-05-05 19:06 | 50.57569 | 7.16056 | 20821 ft | 373 kts | 274° |
| 2026-05-05 19:06 | 50.57820 | 7.12065 | 20378 ft | 370 kts | 274° |
| 2026-05-05 19:06 | 50.58068 | 7.08054 | 19943 ft | 367 kts | 274° |
| 2026-05-05 19:07 | 50.58311 | 7.04067 | 19513 ft | 364 kts | 274° |
| 2026-05-05 19:07 | 50.58549 | 7.00116 | 19091 ft | 361 kts | 274° |
| 2026-05-05 19:07 | 50.58783 | 6.96193 | 18670 ft | 359 kts | 274° |
| 2026-05-05 19:07 | 50.59014 | 6.92293 | 18246 ft | 357 kts | 274° |
| 2026-05-05 19:08 | 50.59242 | 6.88421 | 17798 ft | 354 kts | 274° |
| 2026-05-05 19:08 | 50.59468 | 6.84573 | 17350 ft | 352 kts | 274° |
| 2026-05-05 19:08 | 50.59692 | 6.80752 | 16916 ft | 349 kts | 274° |
| 2026-05-05 19:08 | 50.59913 | 6.76960 | 16619 ft | 347 kts | 274° |
| 2026-05-05 19:09 | 50.60134 | 6.73183 | 16184 ft | 345 kts | 274° |
| 2026-05-05 19:09 | 50.60355 | 6.69428 | 15767 ft | 343 kts | 274° |
| 2026-05-05 19:09 | 50.60572 | 6.65701 | 15364 ft | 341 kts | 274° |
| 2026-05-05 19:09 | 50.60785 | 6.61996 | 14963 ft | 339 kts | 274° |
| 2026-05-05 19:10 | 50.60997 | 6.58305 | 14804 ft | 338 kts | 274° |
| 2026-05-05 19:10 | 50.61205 | 6.54612 | 14824 ft | 339 kts | 273° |
| 2026-05-05 19:10 | 50.61411 | 6.50915 | 14835 ft | 339 kts | 273° |
| 2026-05-05 19:10 | 50.61616 | 6.47219 | 14830 ft | 339 kts | 273° |
| 2026-05-05 19:11 | 50.61820 | 6.43513 | 14834 ft | 339 kts | 273° |
| 2026-05-05 19:11 | 50.62022 | 6.39819 | 14834 ft | 339 kts | 273° |
| 2026-05-05 19:11 | 50.62229 | 6.36118 | 14835 ft | 339 kts | 273° |
| 2026-05-05 19:11 | 50.62435 | 6.32420 | 14835 ft | 339 kts | 273° |
| 2026-05-05 19:12 | 50.62639 | 6.28721 | 14836 ft | 339 kts | 273° |
| 2026-05-05 19:12 | 50.62840 | 6.25020 | 14834 ft | 339 kts | 273° |
| 2026-05-05 19:12 | 50.63038 | 6.21323 | 14836 ft | 339 kts | 273° |
| 2026-05-05 19:12 | 50.63234 | 6.17625 | 14839 ft | 339 kts | 273° |
| 2026-05-05 19:13 | 50.63428 | 6.13927 | 14844 ft | 339 kts | 273° |
| 2026-05-05 19:13 | 50.63618 | 6.10218 | 14844 ft | 339 kts | 273° |
| 2026-05-05 19:13 | 50.63806 | 6.06517 | 14846 ft | 339 kts | 273° |
| 2026-05-05 19:13 | 50.63996 | 6.02822 | 14849 ft | 338 kts | 273° |
| 2026-05-05 19:14 | 50.64187 | 5.99138 | 14713 ft | 335 kts | 273° |
| 2026-05-05 19:14 | 50.64376 | 5.95481 | 14304 ft | 334 kts | 273° |
| 2026-05-05 19:14 | 50.64563 | 5.91844 | 13902 ft | 333 kts | 273° |
| 2026-05-05 19:14 | 50.64757 | 5.88222 | 13484 ft | 331 kts | 275° |
| 2026-05-05 19:15 | 50.65218 | 5.84670 | 13049 ft | 331 kts | 285° |
| 2026-05-05 19:15 | 50.66061 | 5.81310 | 12625 ft | 330 kts | 295° |
| 2026-05-05 19:15 | 50.67102 | 5.78100 | 12204 ft | 327 kts | 296° |
| 2026-05-05 19:15 | 50.68132 | 5.74918 | 11782 ft | 325 kts | 295° |
| 2026-05-05 19:16 | 50.69155 | 5.71749 | 11405 ft | 322 kts | 296° |
| 2026-05-05 19:16 | 50.70138 | 5.68697 | 11286 ft | 310 kts | 296° |
| 2026-05-05 19:16 | 50.71110 | 5.65675 | 11125 ft | 300 kts | 295° |
| 2026-05-05 19:16 | 50.72031 | 5.62801 | 10832 ft | 296 kts | 295° |
| 2026-05-05 19:17 | 50.72963 | 5.59878 | 10515 ft | 293 kts | 296° |
| 2026-05-05 19:17 | 50.73878 | 5.57014 | 10178 ft | 291 kts | 296° |
| 2026-05-05 19:17 | 50.74788 | 5.54171 | 9836 ft | 289 kts | 297° |
| 2026-05-05 19:17 | 50.75688 | 5.51352 | 9477 ft | 287 kts | 297° |
| 2026-05-05 19:18 | 50.76581 | 5.48544 | 9091 ft | 285 kts | 297° |
| 2026-05-05 19:18 | 50.77465 | 5.45757 | 8861 ft | 283 kts | 297° |
| 2026-05-05 19:18 | 50.78352 | 5.42965 | 8863 ft | 285 kts | 297° |
| 2026-05-05 19:18 | 50.79226 | 5.40209 | 8868 ft | 285 kts | 297° |
| 2026-05-05 19:19 | 50.80115 | 5.37402 | 8867 ft | 285 kts | 297° |
| 2026-05-05 19:19 | 50.81002 | 5.34603 | 8867 ft | 285 kts | 297° |
| 2026-05-05 19:19 | 50.81891 | 5.31796 | 8867 ft | 285 kts | 297° |
| 2026-05-05 19:19 | 50.82778 | 5.28990 | 8867 ft | 285 kts | 297° |
| 2026-05-05 19:20 | 50.83664 | 5.26182 | 8869 ft | 285 kts | 297° |
| 2026-05-05 19:20 | 50.84487 | 5.23329 | 8873 ft | 285 kts | 287° |
| 2026-05-05 19:20 | 50.84765 | 5.20223 | 8873 ft | 286 kts | 274° |
| 2026-05-05 19:20 | 50.84863 | 5.17071 | 8872 ft | 287 kts | 273° |
| 2026-05-05 19:21 | 50.84941 | 5.13915 | 8871 ft | 288 kts | 273° |
| 2026-05-05 19:21 | 50.85006 | 5.10732 | 8873 ft | 290 kts | 272° |
| 2026-05-05 19:21 | 50.85071 | 5.07549 | 8875 ft | 290 kts | 273° |
| 2026-05-05 19:21 | 50.85134 | 5.04367 | 8710 ft | 287 kts | 272° |
| 2026-05-05 19:22 | 50.85196 | 5.01218 | 8291 ft | 286 kts | 271° |
| 2026-05-05 19:22 | 50.84912 | 4.98114 | 7895 ft | 285 kts | 256° |
| 2026-05-05 19:22 | 50.84526 | 4.95043 | 7494 ft | 284 kts | 262° |
| 2026-05-05 19:22 | 50.84235 | 4.91964 | 7085 ft | 283 kts | 263° |
| 2026-05-05 19:23 | 50.83950 | 4.88902 | 6873 ft | 281 kts | 263° |
| 2026-05-05 19:23 | 50.83663 | 4.85833 | 6884 ft | 283 kts | 263° |
| 2026-05-05 19:23 | 50.83374 | 4.82758 | 6884 ft | 283 kts | 263° |
| 2026-05-05 19:23 | 50.83084 | 4.79673 | 6883 ft | 283 kts | 263° |
| 2026-05-05 19:24 | 50.82795 | 4.76598 | 6888 ft | 283 kts | 263° |
| 2026-05-05 19:24 | 50.82506 | 4.73534 | 6575 ft | 280 kts | 263° |
| 2026-05-05 19:24 | 50.82217 | 4.70490 | 6151 ft | 280 kts | 263° |
| 2026-05-05 19:24 | 50.81927 | 4.67455 | 5715 ft | 279 kts | 263° |
| 2026-05-05 19:25 | 50.81637 | 4.64429 | 5272 ft | 278 kts | 263° |
| 2026-05-05 19:25 | 50.81345 | 4.61407 | 4846 ft | 278 kts | 263° |
| 2026-05-05 19:25 | 50.81054 | 4.58397 | 4429 ft | 276 kts | 263° |
| 2026-05-05 19:25 | 50.80760 | 4.55403 | 3989 ft | 275 kts | 263° |
| 2026-05-05 19:26 | 50.80462 | 4.52443 | 3696 ft | 268 kts | 263° |
| 2026-05-05 19:26 | 50.80168 | 4.49601 | 3572 ft | 256 kts | 263° |
| 2026-05-05 19:26 | 50.79879 | 4.46885 | 3403 ft | 247 kts | 259° |
| 2026-05-05 19:26 | 50.79584 | 4.44233 | 3114 ft | 243 kts | 262° |
| 2026-05-05 19:27 | 50.79294 | 4.41616 | 3007 ft | 241 kts | 263° |
| 2026-05-05 19:27 | 50.78995 | 4.38975 | 3009 ft | 246 kts | 263° |
| 2026-05-05 19:27 | 50.78686 | 4.36312 | 3005 ft | 246 kts | 263° |
| 2026-05-05 19:27 | 50.78371 | 4.33668 | 2997 ft | 240 kts | 263° |
| 2026-05-05 19:28 | 50.78063 | 4.31131 | 2869 ft | 231 kts | 263° |
| 2026-05-05 19:28 | 50.77757 | 4.28693 | 2684 ft | 223 kts | 262° |
| 2026-05-05 19:28 | 50.77191 | 4.26485 | 2551 ft | 216 kts | 230° |
| 2026-05-05 19:28 | 50.75992 | 4.25198 | 2427 ft | 207 kts | 190° |
| 2026-05-05 19:29 | 50.74635 | 4.25269 | 2292 ft | 195 kts | 150° |
| 2026-05-05 19:29 | 50.73640 | 4.26554 | 2226 ft | 184 kts | 120° |
| 2026-05-05 19:29 | 50.72958 | 4.28240 | 2103 ft | 180 kts | 114° |
| 2026-05-05 19:29 | 50.72340 | 4.29957 | 2007 ft | 180 kts | 112° |
| 2026-05-05 19:30 | 50.71779 | 4.31699 | 1993 ft | 175 kts | 101° |
| 2026-05-05 19:30 | 50.71512 | 4.33559 | 2000 ft | 173 kts | 94° |
| 2026-05-05 19:30 | 50.71368 | 4.35430 | 1999 ft | 170 kts | 82° |
| 2026-05-05 19:30 | 50.71536 | 4.37264 | 2003 ft | 168 kts | 74° |
| 2026-05-05 19:31 | 50.71851 | 4.39022 | 2002 ft | 165 kts | 57° |
| 2026-05-05 19:31 | 50.72570 | 4.40414 | 2006 ft | 163 kts | 44° |
| 2026-05-05 19:31 | 50.73376 | 4.41676 | 2005 ft | 163 kts | 43° |
| 2026-05-05 19:31 | 50.74193 | 4.42909 | 2002 ft | 163 kts | 39° |
| 2026-05-05 19:32 | 50.75208 | 4.43675 | 2005 ft | 164 kts | 17° |
| 2026-05-05 19:32 | 50.76316 | 4.44119 | 2006 ft | 164 kts | 17° |
| 2026-05-05 19:32 | 50.77426 | 4.44564 | 2007 ft | 165 kts | 17° |
| 2026-05-05 19:32 | 50.78537 | 4.45012 | 2006 ft | 165 kts | 17° |
| 2026-05-05 19:33 | 50.79651 | 4.45464 | 1972 ft | 166 kts | 15° |
| 2026-05-05 19:33 | 50.80732 | 4.45902 | 1833 ft | 159 kts | 16° |
| 2026-05-05 19:33 | 50.81779 | 4.46326 | 1666 ft | 145 kts | 16° |
| 2026-05-05 19:33 | 50.82694 | 4.46681 | 1503 ft | 129 kts | 15° |
| 2026-05-05 19:34 | 50.83583 | 4.47032 | 1311 ft | 136 kts | 17° |
| 2026-05-05 19:34 | 50.84467 | 4.47419 | 1117 ft | 130 kts | 19° |
| 2026-05-05 19:34 | 50.85360 | 4.47802 | 966 ft | 136 kts | 14° |
| 2026-05-05 19:35 | 50.87202 | 4.48538 | 561 ft | 132 kts | 14° |
| 2026-05-05 19:35 | 50.88098 | 4.48898 | 367 ft | 133 kts | 14° |
| 2026-05-05 19:35 | 50.88980 | 4.49266 | 205 ft | 127 kts | 13° |
| 2026-05-05 19:35 | 50.89721 | 4.49560 | 149 ft | 79 kts | 14° |
| 2026-05-05 19:36 | 50.90085 | 4.49702 | 132 ft | 43 kts | 12° |
| 2026-05-05 19:36 | 50.90285 | 4.49684 | 128 ft | 26 kts | 346° |
| 2026-05-05 19:36 | 50.90382 | 4.49633 | 122 ft | 10 kts | 329° |
| 2026-05-05 19:36 | 50.90445 | 4.49554 | 123 ft | 13 kts | 313° |
| 2026-05-05 19:37 | 50.90434 | 4.49429 | 121 ft | 12 kts | 248° |
| 2026-05-05 19:37 | 50.90402 | 4.49321 | 120 ft | 10 kts | 244° |
| 2026-05-05 19:37 | 50.90374 | 4.49228 | 122 ft | 9 kts | 245° |
| 2026-05-05 19:37 | 50.90350 | 4.49145 | 122 ft | 8 kts | 245° |
| 2026-05-05 19:38 | 50.90330 | 4.49070 | 122 ft | 7 kts | 255° |
| 2026-05-05 19:38 | 50.90358 | 4.49021 | 122 ft | 7 kts | 330° |
| 2026-05-05 19:38 | 50.90396 | 4.48991 | 121 ft | 1 kts | 335° |
| 2026-05-05 19:38 | 50.90398 | 4.48990 | 121 ft | 0 kts | 335° |